createdAt,value
2019-05-18T00:00:26.028Z,99.90
2019-05-18T00:02:56.878Z,99.90
2019-05-18T00:05:27.466Z,99.90
2019-05-18T00:07:57.935Z,99.90
2019-05-18T00:10:28.449Z,99.90
2019-05-18T00:12:58.955Z,99.90
2019-05-18T00:15:29.442Z,99.90
2019-05-18T00:17:59.943Z,99.90
2019-05-18T00:20:30.934Z,99.90
2019-05-18T00:23:01.988Z,99.90
2019-05-18T00:25:32.513Z,99.90
2019-05-18T00:28:02.984Z,99.90
2019-05-18T00:30:34.944Z,99.90
2019-05-18T00:33:07.099Z,99.90
2019-05-18T00:35:37.617Z,99.90
2019-05-18T00:38:08.097Z,99.90
2019-05-18T00:40:38.609Z,99.90
2019-05-18T00:43:09.814Z,99.90
2019-05-18T00:45:40.308Z,99.90
2019-05-18T00:48:10.792Z,99.90
2019-05-18T00:50:41.384Z,99.90
2019-05-18T00:53:11.979Z,99.90
2019-05-18T00:55:42.493Z,99.90
2019-05-18T00:58:13.088Z,99.90
2019-05-18T01:00:43.688Z,99.90
2019-05-18T01:03:14.181Z,99.90
2019-05-18T01:05:44.654Z,99.90
2019-05-18T01:08:15.243Z,99.90
2019-05-18T01:10:45.785Z,99.90
2019-05-18T01:13:16.306Z,99.90
2019-05-18T01:15:46.818Z,99.90
2019-05-18T01:18:17.410Z,99.90
2019-05-18T01:20:47.959Z,99.90
2019-05-18T01:23:18.475Z,99.90
2019-05-18T01:25:48.964Z,99.90
2019-05-18T01:28:20.756Z,99.90
2019-05-18T01:30:51.264Z,99.90
2019-05-18T01:33:21.801Z,99.90
2019-05-18T01:35:52.304Z,99.90
2019-05-18T01:38:23.883Z,99.90
2019-05-18T01:40:54.446Z,99.90
2019-05-18T01:43:27.438Z,99.90
2019-05-18T01:45:57.918Z,99.90
2019-05-18T01:48:28.404Z,99.90
2019-05-18T01:50:59.756Z,99.90
2019-05-18T01:53:30.255Z,99.90
2019-05-18T01:56:00.733Z,99.90
2019-05-18T01:58:31.232Z,99.90
2019-05-18T02:01:01.700Z,99.90
2019-05-18T02:03:32.191Z,99.90
2019-05-18T02:06:02.669Z,99.90
2019-05-18T02:08:33.167Z,99.90
2019-05-18T02:11:03.647Z,99.90
2019-05-18T02:13:34.209Z,99.90
2019-05-18T02:16:04.903Z,99.90
2019-05-18T02:18:35.412Z,99.90
2019-05-18T02:21:06.026Z,99.90
2019-05-18T02:23:36.509Z,99.90
2019-05-18T02:26:06.979Z,99.90
2019-05-18T02:28:37.487Z,99.90
2019-05-18T02:31:07.996Z,99.90
2019-05-18T02:33:38.482Z,99.90
2019-05-18T02:36:09.055Z,99.90
2019-05-18T02:38:39.562Z,99.90
2019-05-18T02:41:10.044Z,99.90
2019-05-18T02:43:40.537Z,99.90
2019-05-18T02:46:11.031Z,99.90
2019-05-18T02:48:49.721Z,99.90
2019-05-18T02:51:13.783Z,99.90
2019-05-18T02:53:44.962Z,99.90
2019-05-18T02:56:17.170Z,99.90
2019-05-18T02:58:47.685Z,99.90
2019-05-18T03:01:18.150Z,99.90
2019-05-18T03:03:48.697Z,99.90
2019-05-18T03:06:19.335Z,99.90
2019-05-18T03:08:49.937Z,99.90
2019-05-18T03:11:20.413Z,99.90
2019-05-18T03:13:50.988Z,99.90
2019-05-18T03:16:23.017Z,99.90
2019-05-18T03:19:07.751Z,99.90
2019-05-18T03:21:25.849Z,99.90
2019-05-18T03:23:56.394Z,99.90
2019-05-18T03:26:26.908Z,99.90
2019-05-18T03:28:58.394Z,99.90
2019-05-18T03:31:28.874Z,99.90
2019-05-18T03:33:59.376Z,99.90
2019-05-18T03:36:29.985Z,99.90
2019-05-18T03:39:00.490Z,99.90
2019-05-18T03:41:30.978Z,99.90
2019-05-18T03:44:01.478Z,99.90
2019-05-18T03:46:32.190Z,99.90
2019-05-18T03:49:02.730Z,99.90
2019-05-18T03:51:33.904Z,99.90
2019-05-18T03:54:04.375Z,99.90
2019-05-18T03:56:35.005Z,99.90
2019-05-18T03:59:05.470Z,99.90
2019-05-18T04:01:35.966Z,99.90
2019-05-18T04:04:06.528Z,99.90
2019-05-18T04:06:37.038Z,99.90
2019-05-18T04:09:07.880Z,99.90
2019-05-18T04:11:38.401Z,99.90
2019-05-18T04:14:09.870Z,99.90
2019-05-18T04:16:40.945Z,99.90
2019-05-18T04:19:12.091Z,99.90
2019-05-18T04:21:42.979Z,99.90
2019-05-18T04:24:13.444Z,99.90
2019-05-18T04:26:43.961Z,99.90
2019-05-18T04:29:15.373Z,99.90
2019-05-18T04:31:47.482Z,99.90
2019-05-18T04:34:17.962Z,99.90
2019-05-18T04:36:48.467Z,99.90
2019-05-18T04:39:19.231Z,99.90
2019-05-18T04:41:49.725Z,99.90
2019-05-18T04:44:20.220Z,99.90
2019-05-18T04:46:50.717Z,99.90
2019-05-18T04:49:22.838Z,99.90
2019-05-18T04:51:53.334Z,99.90
2019-05-18T04:54:23.901Z,99.90
2019-05-18T04:56:54.404Z,99.90
2019-05-18T04:59:24.916Z,99.90
2019-05-18T05:01:55.485Z,99.90
2019-05-18T05:04:25.980Z,99.90
2019-05-18T05:06:57.370Z,99.90
2019-05-18T05:09:27.849Z,99.90
2019-05-18T05:11:58.368Z,99.90
2019-05-18T05:14:28.844Z,99.90
2019-05-18T05:17:00.878Z,99.90
2019-05-18T05:19:31.928Z,99.90
2019-05-18T05:22:02.431Z,99.90
2019-05-18T05:24:34.618Z,99.90
2019-05-18T05:27:05.103Z,99.90
2019-05-18T05:29:35.636Z,99.90
2019-05-18T05:32:06.545Z,99.90
2019-05-18T05:34:37.491Z,99.90
2019-05-18T05:37:07.957Z,99.90
2019-05-18T05:39:38.455Z,99.90
2019-05-18T05:42:10.407Z,99.90
2019-05-18T05:44:42.440Z,99.90
2019-05-18T05:47:12.950Z,99.90
2019-05-18T05:49:43.529Z,99.90
2019-05-18T05:52:14.034Z,99.90
2019-05-18T05:54:44.676Z,99.90
2019-05-18T05:57:15.140Z,99.90
2019-05-18T05:59:45.646Z,99.90
2019-05-18T06:02:16.137Z,99.90
2019-05-18T06:04:46.665Z,99.90
2019-05-18T06:07:17.139Z,99.90
2019-05-18T06:09:47.628Z,99.90
2019-05-18T06:12:18.194Z,99.90
2019-05-18T06:14:49.535Z,99.90
2019-05-18T06:17:20.015Z,99.90
2019-05-18T06:19:50.779Z,99.90
2019-05-18T06:22:21.259Z,99.90
2019-05-18T06:24:51.758Z,99.90
2019-05-18T06:27:22.242Z,99.90
2019-05-18T06:29:52.740Z,99.90
2019-05-18T06:32:23.217Z,99.90
2019-05-18T06:34:53.776Z,99.90
2019-05-18T06:37:24.236Z,99.90
2019-05-18T06:39:54.727Z,99.90
2019-05-18T06:42:25.208Z,99.90
2019-05-18T06:44:55.716Z,99.90
2019-05-18T06:47:26.208Z,99.90
2019-05-18T06:49:56.702Z,99.40
2019-05-18T06:52:28.734Z,99.80
2019-05-18T06:54:59.382Z,99.90
2019-05-18T06:57:30.421Z,99.40
2019-05-18T07:00:01.152Z,99.10
2019-05-18T07:02:31.635Z,99.20
2019-05-18T07:05:02.682Z,98.60
2019-05-18T07:07:33.251Z,98.80
2019-05-18T07:10:05.307Z,98.20
2019-05-18T07:12:35.888Z,98.30
2019-05-18T07:15:08.939Z,98.40
2019-05-18T07:17:39.426Z,97.90
2019-05-18T07:20:10.313Z,97.40
2019-05-18T07:22:41.149Z,97.50
2019-05-18T07:25:12.211Z,97.90
2019-05-18T07:27:42.701Z,98.00
2019-05-18T07:30:15.389Z,97.80
2019-05-18T07:32:45.941Z,97.50
2019-05-18T07:35:17.111Z,97.40
2019-05-18T07:37:47.646Z,97.40
2019-05-18T07:40:18.341Z,97.20
2019-05-18T07:42:48.859Z,97.50
2019-05-18T07:45:19.389Z,97.50
2019-05-18T07:47:49.915Z,97.50
2019-05-18T07:50:20.439Z,97.10
2019-05-18T07:52:50.931Z,97.20
2019-05-18T07:55:21.396Z,97.00
2019-05-18T07:57:51.949Z,96.80
2019-05-18T08:00:22.481Z,96.20
2019-05-18T08:02:52.938Z,95.70
2019-05-18T08:05:23.433Z,95.40
2019-05-18T08:07:53.926Z,94.80
2019-05-18T08:10:38.455Z,94.60
2019-05-18T08:13:10.965Z,94.50
2019-05-18T08:15:41.498Z,95.10
2019-05-18T08:18:13.663Z,94.10
2019-05-18T08:20:44.692Z,93.90
2019-05-18T08:23:15.750Z,94.00
2019-05-18T08:25:47.105Z,93.20
2019-05-18T08:28:17.613Z,93.20
2019-05-18T08:30:48.090Z,92.60
2019-05-18T08:33:18.572Z,91.90
2019-05-18T08:35:49.043Z,90.80
2019-05-18T08:38:20.301Z,90.70
2019-05-18T08:40:50.765Z,90.20
2019-05-18T08:43:22.935Z,90.10
2019-05-18T08:45:54.711Z,91.10
2019-05-18T08:48:26.282Z,90.10
2019-05-18T08:50:56.850Z,90.80
2019-05-18T08:53:27.326Z,90.80
2019-05-18T08:55:58.341Z,91.30
2019-05-18T08:58:28.927Z,91.50
2019-05-18T09:00:59.412Z,91.60
2019-05-18T09:03:29.917Z,91.30
2019-05-18T09:06:00.548Z,92.00
2019-05-18T09:08:32.809Z,91.70
2019-05-18T09:11:04.283Z,91.30
2019-05-18T09:13:35.752Z,91.70
2019-05-18T09:16:06.254Z,90.60
2019-05-18T09:18:37.895Z,90.70
2019-05-18T09:21:09.964Z,90.60
2019-05-18T09:23:41.559Z,91.00
2019-05-18T09:26:12.139Z,91.80
2019-05-18T09:28:42.643Z,91.30
2019-05-18T09:31:13.150Z,91.80
2019-05-18T09:33:43.621Z,91.60
2019-05-18T09:36:14.186Z,90.30
2019-05-18T09:38:44.654Z,90.20
2019-05-18T09:41:15.239Z,90.20
2019-05-18T09:43:45.705Z,90.20
2019-05-18T09:46:16.220Z,91.50
2019-05-18T09:48:46.719Z,90.50
2019-05-18T09:51:17.187Z,85.70
2019-05-18T09:53:51.466Z,86.80
2019-05-18T09:56:19.839Z,85.40
2019-05-18T09:58:50.980Z,85.70
2019-05-18T10:01:21.449Z,84.60
2019-05-18T10:03:52.522Z,84.80
2019-05-18T10:06:22.996Z,85.30
2019-05-18T10:08:53.580Z,86.70
2019-05-18T10:11:24.187Z,86.90
2019-05-18T10:13:54.778Z,88.10
2019-05-18T10:16:25.272Z,87.30
2019-05-18T10:18:55.745Z,87.90
2019-05-18T10:21:26.252Z,88.40
2019-05-18T10:23:58.647Z,86.10
2019-05-18T10:26:30.654Z,83.60
2019-05-18T10:29:01.149Z,78.30
2019-05-18T10:31:33.265Z,77.20
2019-05-18T10:34:06.194Z,78.10
2019-05-18T10:36:36.678Z,73.90
2019-05-18T10:39:08.387Z,72.00
2019-05-18T10:41:39.911Z,72.80
2019-05-18T10:44:10.371Z,74.80
2019-05-18T10:46:40.867Z,76.90
2019-05-18T10:49:11.394Z,78.10
2019-05-18T10:51:41.908Z,78.50
2019-05-18T10:54:12.402Z,78.50
2019-05-18T10:56:42.900Z,77.80
2019-05-18T10:59:15.119Z,75.20
2019-05-18T11:01:45.583Z,67.10
2019-05-18T11:04:16.089Z,61.90
2019-05-18T11:06:46.556Z,62.60
2019-05-18T11:09:17.609Z,62.20
2019-05-18T11:11:48.070Z,62.40
2019-05-18T11:14:19.024Z,58.90
2019-05-18T11:16:50.087Z,62.00
2019-05-18T11:19:20.648Z,59.70
2019-05-18T11:21:51.207Z,55.60
2019-05-18T11:24:21.814Z,57.10
2019-05-18T11:26:52.301Z,55.90
2019-05-18T11:29:24.029Z,53.60
2019-05-18T11:31:54.805Z,50.20
2019-05-18T11:34:25.279Z,48.70
2019-05-18T11:36:55.787Z,49.20
2019-05-18T11:39:27.507Z,48.50
2019-05-18T11:41:58.226Z,49.50
2019-05-18T11:44:29.969Z,47.40
2019-05-18T11:47:02.146Z,47.80
2019-05-18T11:49:32.624Z,49.70
2019-05-18T11:52:03.092Z,48.30
2019-05-18T11:54:33.655Z,49.10
2019-05-18T11:57:04.143Z,48.30
2019-05-18T11:59:35.629Z,47.10
2019-05-18T12:02:07.661Z,44.70
2019-05-18T12:04:38.113Z,45.20
2019-05-18T12:07:08.618Z,43.90
2019-05-18T12:09:39.146Z,42.80
2019-05-18T12:12:09.672Z,41.40
2019-05-18T12:14:40.148Z,43.00
2019-05-18T12:17:12.336Z,40.70
2019-05-18T12:19:43.586Z,40.70
2019-05-18T12:22:14.061Z,42.10
2019-05-18T12:24:44.553Z,40.40
2019-05-18T12:27:15.889Z,41.50
2019-05-18T12:29:48.203Z,40.50
2019-05-18T12:32:19.945Z,40.00
2019-05-18T12:34:51.433Z,38.90
2019-05-18T12:37:22.880Z,40.50
2019-05-18T12:39:54.318Z,42.40
2019-05-18T12:42:24.807Z,42.50
2019-05-18T12:44:55.310Z,43.70
2019-05-18T12:47:26.365Z,44.10
2019-05-18T12:49:56.933Z,44.30
2019-05-18T12:52:27.395Z,43.60
2019-05-18T12:54:57.903Z,42.60
2019-05-18T12:57:28.389Z,41.90
2019-05-18T12:59:58.849Z,42.40
2019-05-18T13:02:29.346Z,43.30
2019-05-18T13:05:00.376Z,44.30
2019-05-18T13:07:31.870Z,46.20
2019-05-18T13:10:02.350Z,46.60
2019-05-18T13:12:34.245Z,48.00
2019-05-18T13:15:10.254Z,49.70
2019-05-18T13:17:40.761Z,50.10
2019-05-18T13:20:13.079Z,51.20
2019-05-18T13:22:43.564Z,53.00
2019-05-18T13:25:16.920Z,56.00
2019-05-18T13:27:47.947Z,56.40
2019-05-18T13:30:19.826Z,60.80
2019-05-18T13:32:51.876Z,65.60
2019-05-18T13:35:23.886Z,65.30
2019-05-18T13:37:55.008Z,70.90
2019-05-18T13:40:25.630Z,71.10
2019-05-18T13:42:57.097Z,74.10
2019-05-18T13:45:27.663Z,79.30
2019-05-18T13:47:59.291Z,90.50
2019-05-18T13:50:29.872Z,92.60
2019-05-18T13:53:00.325Z,93.80
2019-05-18T13:55:30.840Z,95.00
2019-05-18T13:58:02.476Z,96.30
2019-05-18T14:00:32.965Z,96.90
2019-05-18T14:03:03.526Z,96.90
2019-05-18T14:05:35.182Z,97.60
2019-05-18T14:08:05.698Z,97.20
2019-05-18T14:10:36.261Z,97.10
2019-05-18T14:13:06.789Z,98.60
2019-05-18T14:15:37.273Z,99.50
2019-05-18T14:18:10.480Z,99.10
2019-05-18T14:20:40.961Z,99.40
2019-05-18T14:23:11.469Z,99.90
2019-05-18T14:25:45.714Z,99.90
2019-05-18T14:28:15.108Z,99.90
2019-05-18T14:30:45.681Z,99.90
2019-05-18T14:33:16.152Z,99.90
2019-05-18T14:35:46.712Z,99.90
2019-05-18T14:38:20.471Z,99.90
2019-05-18T14:40:50.965Z,99.90
2019-05-18T14:43:22.021Z,99.90
2019-05-18T14:45:52.490Z,99.90
2019-05-18T14:48:22.979Z,99.90
2019-05-18T14:50:53.492Z,99.90
2019-05-18T14:53:24.025Z,99.90
2019-05-18T14:55:55.112Z,99.90
2019-05-18T14:58:25.617Z,99.90
2019-05-18T15:00:57.192Z,99.90
2019-05-18T15:03:29.222Z,99.90
2019-05-18T15:05:59.699Z,99.90
2019-05-18T15:08:30.155Z,97.20
2019-05-18T15:11:00.662Z,96.50
2019-05-18T15:13:31.117Z,94.60
2019-05-18T15:16:01.685Z,92.90
2019-05-18T15:18:32.166Z,89.00
2019-05-18T15:21:02.916Z,79.90
2019-05-18T15:23:33.937Z,76.70
2019-05-18T15:26:04.954Z,75.20
2019-05-18T15:28:35.444Z,64.60
2019-05-18T15:31:06.881Z,61.40
2019-05-18T15:33:37.618Z,60.00
2019-05-18T15:36:08.948Z,54.70
2019-05-18T15:38:39.544Z,51.80
2019-05-18T15:41:11.461Z,49.50
2019-05-18T15:43:41.945Z,46.30
2019-05-18T15:46:13.946Z,46.30
2019-05-18T15:48:44.605Z,44.80
2019-05-18T15:51:15.026Z,43.30
2019-05-18T15:53:45.527Z,44.30
2019-05-18T15:56:17.704Z,42.60
2019-05-18T15:58:48.199Z,42.10
2019-05-18T16:01:18.784Z,41.00
2019-05-18T16:03:52.107Z,40.50
2019-05-18T16:06:23.246Z,40.20
2019-05-18T16:08:53.809Z,40.50
2019-05-18T16:11:26.142Z,39.30
2019-05-18T16:13:56.699Z,40.40
2019-05-18T16:16:27.217Z,39.50
2019-05-18T16:18:57.686Z,39.40
2019-05-18T16:21:28.192Z,39.10
2019-05-18T16:24:02.792Z,38.40
2019-05-18T16:26:33.244Z,38.00
2019-05-18T16:29:03.725Z,39.30
2019-05-18T16:31:35.105Z,39.70
2019-05-18T16:34:05.704Z,39.70
2019-05-18T16:36:37.183Z,39.70
2019-05-18T16:39:09.523Z,40.90
2019-05-18T16:41:40.581Z,41.10
2019-05-18T16:44:11.894Z,42.30
2019-05-18T16:46:44.091Z,42.50
2019-05-18T16:49:14.578Z,43.20
2019-05-18T16:51:45.128Z,43.90
2019-05-18T16:54:17.652Z,44.60
2019-05-18T16:56:49.408Z,45.10
2019-05-18T16:59:19.919Z,45.50
2019-05-18T17:01:52.087Z,47.80
2019-05-18T17:04:22.665Z,50.40
2019-05-18T17:06:53.157Z,53.00
2019-05-18T17:09:26.126Z,55.60
2019-05-18T17:11:56.618Z,57.90
2019-05-18T17:14:27.191Z,61.20
2019-05-18T17:16:57.651Z,64.80
2019-05-18T17:19:29.207Z,69.40
2019-05-18T17:21:59.713Z,76.70
2019-05-18T17:24:30.862Z,84.60
2019-05-18T17:27:01.362Z,87.80
2019-05-18T17:29:32.713Z,90.20
2019-05-18T17:32:03.199Z,91.10
2019-05-18T17:34:33.694Z,92.10
2019-05-18T17:37:05.041Z,93.60
2019-05-18T17:39:35.547Z,94.90
2019-05-18T17:42:06.110Z,95.20
2019-05-18T17:44:39.020Z,95.10
2019-05-18T17:47:09.485Z,94.70
2019-05-18T17:49:39.985Z,94.50
2019-05-18T17:52:10.696Z,94.80
2019-05-18T17:54:41.767Z,94.90
2019-05-18T17:57:12.260Z,95.60
2019-05-18T17:59:43.503Z,96.20
2019-05-18T18:02:14.072Z,96.70
2019-05-18T18:04:44.786Z,97.00
2019-05-18T18:07:16.577Z,97.30
2019-05-18T18:09:47.065Z,97.60
2019-05-18T18:12:18.574Z,98.00
2019-05-18T18:14:49.069Z,98.50
2019-05-18T18:17:19.546Z,99.10
2019-05-18T18:19:50.010Z,99.50
2019-05-18T18:22:25.139Z,99.60
2019-05-18T18:24:55.660Z,99.50
2019-05-18T18:27:29.706Z,99.50
2019-05-18T18:30:00.412Z,99.60
2019-05-18T18:32:31.045Z,99.60
2019-05-18T18:35:01.521Z,99.90
2019-05-18T18:37:32.043Z,99.90
2019-05-18T18:40:02.510Z,99.90
2019-05-18T18:42:33.024Z,99.90
2019-05-18T18:45:04.336Z,99.90
2019-05-18T18:47:35.444Z,99.90
2019-05-18T18:50:08.088Z,99.90
2019-05-18T18:52:39.514Z,99.90
2019-05-18T18:55:10.313Z,99.90
2019-05-18T18:57:42.497Z,99.90
2019-05-18T19:00:13.553Z,99.90
2019-05-18T19:02:44.788Z,99.90
2019-05-18T19:05:17.089Z,99.90
2019-05-18T19:07:47.592Z,99.90
2019-05-18T19:10:18.321Z,99.90
2019-05-18T19:12:48.782Z,99.90
2019-05-18T19:15:20.887Z,99.90
2019-05-18T19:17:52.351Z,99.90
2019-05-18T19:20:24.010Z,99.90
2019-05-18T19:22:55.309Z,99.90
2019-05-18T19:25:27.341Z,99.90
2019-05-18T19:27:58.401Z,99.90
2019-05-18T19:30:28.962Z,99.90
2019-05-18T19:32:59.428Z,99.90
2019-05-18T19:35:29.922Z,99.90
2019-05-18T19:38:00.459Z,99.90
2019-05-18T19:40:30.919Z,99.90
2019-05-18T19:43:03.455Z,99.90
2019-05-18T19:45:34.095Z,99.90
2019-05-18T19:48:06.228Z,99.90
2019-05-18T19:50:38.486Z,99.90
2019-05-18T19:53:11.941Z,99.90
2019-05-18T19:55:42.496Z,99.90
2019-05-18T19:58:13.043Z,99.90
2019-05-18T20:00:43.539Z,99.90
2019-05-18T20:03:16.848Z,99.90
2019-05-18T20:05:47.322Z,99.90
2019-05-18T20:08:17.823Z,99.90
2019-05-18T20:10:49.389Z,99.90
2019-05-18T20:13:21.181Z,99.90
2019-05-18T20:15:51.648Z,99.90
2019-05-18T20:18:22.703Z,99.90
2019-05-18T20:20:53.161Z,99.90
2019-05-18T20:23:24.323Z,99.90
2019-05-18T20:25:54.791Z,99.90
2019-05-18T20:28:27.600Z,99.90
2019-05-18T20:30:58.089Z,99.90
2019-05-18T20:33:28.960Z,99.90
2019-05-18T20:35:59.452Z,99.90
2019-05-18T20:38:29.918Z,99.90
2019-05-18T20:41:01.671Z,99.90
2019-05-18T20:43:33.715Z,99.90
2019-05-18T20:46:05.666Z,99.90
2019-05-18T20:48:36.130Z,99.90
2019-05-18T20:51:06.689Z,99.90
2019-05-18T20:53:41.032Z,99.90
2019-05-18T20:56:10.658Z,99.90
2019-05-18T20:58:41.123Z,99.90
2019-05-18T21:01:11.695Z,99.90
2019-05-18T21:03:42.152Z,99.90
2019-05-18T21:06:12.650Z,99.90
2019-05-18T21:08:45.539Z,99.90
2019-05-18T21:11:16.001Z,99.90
2019-05-18T21:13:48.036Z,99.90
2019-05-18T21:16:18.492Z,99.90
2019-05-18T21:18:50.570Z,99.90
2019-05-18T21:21:25.637Z,99.90
2019-05-18T21:23:54.451Z,99.90
2019-05-18T21:26:24.953Z,99.90
2019-05-18T21:29:00.281Z,99.90
2019-05-18T21:31:27.619Z,99.90
2019-05-18T21:33:58.746Z,99.90
2019-05-18T21:36:29.565Z,99.90
2019-05-18T21:39:00.036Z,99.90
2019-05-18T21:41:30.527Z,99.90
2019-05-18T21:44:04.411Z,99.90
2019-05-18T21:46:38.825Z,99.90
2019-05-18T21:49:08.064Z,99.90
2019-05-18T21:51:38.617Z,99.90
2019-05-18T21:54:10.101Z,99.90
2019-05-18T21:56:40.592Z,99.90
2019-05-18T21:59:12.759Z,99.90
2019-05-18T22:01:43.369Z,99.90
2019-05-18T22:04:13.915Z,99.90
2019-05-18T22:06:44.415Z,99.90
2019-05-18T22:09:14.875Z,99.90
2019-05-18T22:11:46.042Z,99.90
2019-05-18T22:14:16.517Z,99.90
2019-05-18T22:16:47.798Z,99.90
2019-05-18T22:19:18.256Z,99.90
2019-05-18T22:21:48.757Z,99.90
2019-05-18T22:24:19.212Z,99.90
2019-05-18T22:26:49.710Z,99.90
2019-05-18T22:29:20.179Z,99.90
2019-05-18T22:31:50.682Z,99.90
2019-05-18T22:34:21.149Z,99.90
2019-05-18T22:36:51.639Z,99.90
2019-05-18T22:39:22.110Z,99.90
2019-05-18T22:41:52.609Z,99.90
2019-05-18T22:44:23.066Z,99.90
2019-05-18T22:46:53.975Z,99.90
2019-05-18T22:49:24.492Z,99.90
2019-05-18T22:51:55.371Z,99.90
2019-05-18T22:54:26.238Z,99.90
2019-05-18T22:56:56.692Z,99.90
2019-05-18T22:59:27.193Z,99.90
2019-05-18T23:01:59.248Z,99.90
2019-05-18T23:04:32.747Z,99.90
2019-05-18T23:07:03.201Z,99.90
2019-05-18T23:09:33.672Z,99.90
2019-05-18T23:12:04.177Z,99.90
2019-05-18T23:14:34.665Z,99.90
2019-05-18T23:17:06.103Z,99.90
2019-05-18T23:19:36.603Z,99.90
2019-05-18T23:22:08.784Z,99.90
2019-05-18T23:24:39.281Z,99.90
2019-05-18T23:27:09.814Z,99.90
2019-05-18T23:29:40.311Z,99.90
2019-05-18T23:32:10.851Z,99.90
2019-05-18T23:34:42.012Z,99.90
2019-05-18T23:37:12.478Z,99.90
2019-05-18T23:39:42.973Z,99.90
2019-05-18T23:42:13.435Z,99.90
2019-05-18T23:44:43.936Z,99.90
2019-05-18T23:47:15.569Z,99.90
2019-05-18T23:49:46.056Z,99.90
2019-05-18T23:52:16.528Z,99.90
2019-05-18T23:54:47.952Z,99.90
2019-05-18T23:57:18.433Z,99.90
2019-05-18T23:59:49.571Z,99.90
